CheckWX is a tool to help pilots better visualize weather data.  It is not intended as a substitute for an official pre-flight weather briefing.

07:51:16 UTC

KPHX TAF
Phoenix Sky Harbor International Airport
Phoenix, Arizona, USA
KPHX 190520Z 1906/2012 29009KT P6SM SKC FM191000 10005KT P6SM SKC FM192100 25008KT P6SM SKC FM201000 09006KT P6SM SKC

Jun-19@
06:00 UTC

Jun-19 @ 06:00 UTC

Jun-19@
10:00 UTC

Jun-19 @ 10:00 UTC

KPHX 190520Z 1906/2012 29009KT P6SM SKC
Wind
  • 290° at 9 KTS
Cloud Levels
  • Clear skies

Jun-19@
10:00 UTC

Jun-19 @ 10:00 UTC

Jun-19@
21:00 UTC

Jun-19 @ 21:00 UTC

FM191000 10005KT P6SM SKC

From

From Standard forecast or significant change

Wind
  • 100° at 5 KTS
Cloud Levels
  • Clear skies

Jun-19@
21:00 UTC

Jun-19 @ 21:00 UTC

Jun-20@
10:00 UTC

Jun-20 @ 10:00 UTC

FM192100 25008KT P6SM SKC

From

From Standard forecast or significant change

Wind
  • 250° at 8 KTS
Cloud Levels
  • Clear skies

Jun-20@
10:00 UTC

Jun-20 @ 10:00 UTC

Jun-20@
12:00 UTC

Jun-20 @ 12:00 UTC

FM201000 09006KT P6SM SKC

From

From Standard forecast or significant change

Wind
  • 090° at 6 KTS
Cloud Levels
  • Clear skies